sensor_id;sensor_type;location;lat;lon;timestamp;P1;durP1;ratioP1;P2;durP2;ratioP2
4424;SDS011;2225;53.568;13.266;2023-03-23T00:00:07;7.40;;;3.77;;
4424;SDS011;2225;53.568;13.266;2023-03-23T00:02:35;11.93;;;3.70;;
4424;SDS011;2225;53.568;13.266;2023-03-23T00:05:03;9.53;;;3.83;;
4424;SDS011;2225;53.568;13.266;2023-03-23T00:07:32;10.07;;;4.07;;
4424;SDS011;2225;53.568;13.266;2023-03-23T00:09:59;11.37;;;4.27;;
4424;SDS011;2225;53.568;13.266;2023-03-23T00:12:28;7.10;;;3.53;;
4424;SDS011;2225;53.568;13.266;2023-03-23T00:15:05;10.20;;;4.30;;
4424;SDS011;2225;53.568;13.266;2023-03-23T00:17:38;7.80;;;3.27;;
4424;SDS011;2225;53.568;13.266;2023-03-23T00:20:05;10.37;;;4.60;;
4424;SDS011;2225;53.568;13.266;2023-03-23T00:22:32;7.83;;;3.00;;
4424;SDS011;2225;53.568;13.266;2023-03-23T00:25:03;11.20;;;3.67;;
4424;SDS011;2225;53.568;13.266;2023-03-23T00:27:30;10.30;;;3.80;;
4424;SDS011;2225;53.568;13.266;2023-03-23T00:29:56;7.90;;;3.63;;
4424;SDS011;2225;53.568;13.266;2023-03-23T00:32:23;11.13;;;4.20;;
4424;SDS011;2225;53.568;13.266;2023-03-23T00:34:54;9.43;;;3.67;;
4424;SDS011;2225;53.568;13.266;2023-03-23T00:37:21;7.17;;;3.43;;
4424;SDS011;2225;53.568;13.266;2023-03-23T00:39:47;7.37;;;3.67;;
4424;SDS011;2225;53.568;13.266;2023-03-23T00:42:14;12.90;;;4.10;;
4424;SDS011;2225;53.568;13.266;2023-03-23T00:44:41;14.23;;;4.40;;
4424;SDS011;2225;53.568;13.266;2023-03-23T00:47:08;7.87;;;3.70;;
4424;SDS011;2225;53.568;13.266;2023-03-23T00:49:37;10.40;;;3.80;;
4424;SDS011;2225;53.568;13.266;2023-03-23T00:52:04;6.93;;;3.40;;
4424;SDS011;2225;53.568;13.266;2023-03-23T00:54:31;8.83;;;4.40;;
4424;SDS011;2225;53.568;13.266;2023-03-23T00:56:58;9.67;;;4.03;;
4424;SDS011;2225;53.568;13.266;2023-03-23T00:59:25;7.43;;;3.63;;
4424;SDS011;2225;53.568;13.266;2023-03-23T01:01:51;8.43;;;3.30;;
4424;SDS011;2225;53.568;13.266;2023-03-23T01:04:17;11.90;;;4.13;;
4424;SDS011;2225;53.568;13.266;2023-03-23T01:06:47;7.23;;;3.30;;
4424;SDS011;2225;53.568;13.266;2023-03-23T01:09:16;10.57;;;3.70;;
4424;SDS011;2225;53.568;13.266;2023-03-23T01:11:47;7.77;;;3.60;;
4424;SDS011;2225;53.568;13.266;2023-03-23T01:14:15;7.80;;;3.17;;
4424;SDS011;2225;53.568;13.266;2023-03-23T01:16:44;7.33;;;3.23;;
4424;SDS011;2225;53.568;13.266;2023-03-23T01:19:10;11.47;;;3.30;;
4424;SDS011;2225;53.568;13.266;2023-03-23T01:21:36;10.43;;;3.10;;
4424;SDS011;2225;53.568;13.266;2023-03-23T01:24:02;8.80;;;3.90;;
4424;SDS011;2225;53.568;13.266;2023-03-23T01:26:28;7.70;;;3.60;;
4424;SDS011;2225;53.568;13.266;2023-03-23T01:28:54;8.00;;;2.60;;
4424;SDS011;2225;53.568;13.266;2023-03-23T01:31:22;11.23;;;3.00;;
4424;SDS011;2225;53.568;13.266;2023-03-23T01:33:50;9.33;;;3.47;;
4424;SDS011;2225;53.568;13.266;2023-03-23T01:36:18;6.67;;;2.80;;
4424;SDS011;2225;53.568;13.266;2023-03-23T01:38:52;6.53;;;2.90;;
4424;SDS011;2225;53.568;13.266;2023-03-23T01:41:19;14.10;;;3.30;;
4424;SDS011;2225;53.568;13.266;2023-03-23T01:43:59;7.93;;;3.53;;
4424;SDS011;2225;53.568;13.266;2023-03-23T01:46:33;12.20;;;3.67;;
4424;SDS011;2225;53.568;13.266;2023-03-23T01:49:06;9.60;;;3.00;;
4424;SDS011;2225;53.568;13.266;2023-03-23T01:51:37;11.37;;;3.20;;
4424;SDS011;2225;53.568;13.266;2023-03-23T01:54:10;9.40;;;2.50;;
4424;SDS011;2225;53.568;13.266;2023-03-23T01:56:47;17.43;;;3.33;;
4424;SDS011;2225;53.568;13.266;2023-03-23T01:59:19;7.90;;;2.50;;
4424;SDS011;2225;53.568;13.266;2023-03-23T02:01:51;6.80;;;2.80;;
4424;SDS011;2225;53.568;13.266;2023-03-23T02:04:19;11.33;;;3.27;;
4424;SDS011;2225;53.568;13.266;2023-03-23T02:06:47;7.00;;;3.07;;
4424;SDS011;2225;53.568;13.266;2023-03-23T02:09:18;8.80;;;3.73;;
4424;SDS011;2225;53.568;13.266;2023-03-23T02:11:46;11.23;;;3.10;;
4424;SDS011;2225;53.568;13.266;2023-03-23T02:14:15;8.60;;;3.20;;
4424;SDS011;2225;53.568;13.266;2023-03-23T02:16:48;9.90;;;3.70;;
4424;SDS011;2225;53.568;13.266;2023-03-23T02:22:42;8.80;;;3.43;;
4424;SDS011;2225;53.568;13.266;2023-03-23T02:28:19;8.37;;;3.43;;
4424;SDS011;2225;53.568;13.266;2023-03-23T02:31:30;7.70;;;3.37;;
4424;SDS011;2225;53.568;13.266;2023-03-23T02:34:25;11.90;;;3.80;;
4424;SDS011;2225;53.568;13.266;2023-03-23T02:36:57;10.17;;;3.60;;
4424;SDS011;2225;53.568;13.266;2023-03-23T02:40:06;8.07;;;3.30;;
4424;SDS011;2225;53.568;13.266;2023-03-23T02:42:39;10.67;;;3.33;;
4424;SDS011;2225;53.568;13.266;2023-03-23T02:45:09;9.40;;;3.03;;
4424;SDS011;2225;53.568;13.266;2023-03-23T02:47:37;8.40;;;3.17;;
4424;SDS011;2225;53.568;13.266;2023-03-23T02:50:04;6.60;;;2.97;;
4424;SDS011;2225;53.568;13.266;2023-03-23T02:52:35;15.47;;;5.13;;
4424;SDS011;2225;53.568;13.266;2023-03-23T02:55:03;7.70;;;3.50;;
4424;SDS011;2225;53.568;13.266;2023-03-23T02:57:30;21.43;;;3.60;;
4424;SDS011;2225;53.568;13.266;2023-03-23T03:00:02;16.13;;;3.87;;
4424;SDS011;2225;53.568;13.266;2023-03-23T03:02:39;7.27;;;3.40;;
4424;SDS011;2225;53.568;13.266;2023-03-23T03:05:16;9.50;;;3.97;;
4424;SDS011;2225;53.568;13.266;2023-03-23T03:08:09;9.50;;;4.00;;
4424;SDS011;2225;53.568;13.266;2023-03-23T03:11:02;7.10;;;3.53;;
4424;SDS011;2225;53.568;13.266;2023-03-23T03:14:09;10.80;;;3.90;;
4424;SDS011;2225;53.568;13.266;2023-03-23T03:17:00;7.80;;;3.60;;
4424;SDS011;2225;53.568;13.266;2023-03-23T03:19:59;12.10;;;4.00;;
4424;SDS011;2225;53.568;13.266;2023-03-23T03:22:35;11.30;;;3.80;;
4424;SDS011;2225;53.568;13.266;2023-03-23T03:25:08;8.43;;;3.47;;
4424;SDS011;2225;53.568;13.266;2023-03-23T03:27:39;13.90;;;4.00;;
4424;SDS011;2225;53.568;13.266;2023-03-23T03:30:15;9.97;;;3.67;;
4424;SDS011;2225;53.568;13.266;2023-03-23T03:32:51;8.13;;;3.50;;
4424;SDS011;2225;53.568;13.266;2023-03-23T03:35:20;8.60;;;3.70;;
4424;SDS011;2225;53.568;13.266;2023-03-23T03:37:49;9.90;;;4.13;;
4424;SDS011;2225;53.568;13.266;2023-03-23T03:40:17;11.83;;;3.50;;
4424;SDS011;2225;53.568;13.266;2023-03-23T03:42:45;7.17;;;3.60;;
4424;SDS011;2225;53.568;13.266;2023-03-23T03:45:14;7.27;;;3.40;;
4424;SDS011;2225;53.568;13.266;2023-03-23T03:47:43;8.10;;;3.77;;
4424;SDS011;2225;53.568;13.266;2023-03-23T03:50:10;13.37;;;3.90;;
4424;SDS011;2225;53.568;13.266;2023-03-23T03:52:36;10.30;;;4.00;;
4424;SDS011;2225;53.568;13.266;2023-03-23T03:55:04;10.00;;;4.20;;
4424;SDS011;2225;53.568;13.266;2023-03-23T03:57:32;8.93;;;3.90;;
4424;SDS011;2225;53.568;13.266;2023-03-23T04:00:31;7.93;;;3.40;;
4424;SDS011;2225;53.568;13.266;2023-03-23T04:02:57;8.20;;;4.30;;
4424;SDS011;2225;53.568;13.266;2023-03-23T04:05:43;8.77;;;3.47;;
4424;SDS011;2225;53.568;13.266;2023-03-23T04:08:10;12.17;;;4.20;;
4424;SDS011;2225;53.568;13.266;2023-03-23T04:10:37;11.47;;;4.57;;
4424;SDS011;2225;53.568;13.266;2023-03-23T04:13:03;10.73;;;4.40;;
4424;SDS011;2225;53.568;13.266;2023-03-23T04:15:55;10.60;;;4.80;;
4424;SDS011;2225;53.568;13.266;2023-03-23T04:18:21;9.80;;;4.20;;
4424;SDS011;2225;53.568;13.266;2023-03-23T04:20:49;22.17;;;4.10;;
4424;SDS011;2225;53.568;13.266;2023-03-23T04:23:19;8.60;;;4.13;;
4424;SDS011;2225;53.568;13.266;2023-03-23T04:25:47;8.50;;;4.40;;
4424;SDS011;2225;53.568;13.266;2023-03-23T04:28:16;9.40;;;3.83;;
4424;SDS011;2225;53.568;13.266;2023-03-23T04:30:57;9.40;;;4.30;;
4424;SDS011;2225;53.568;13.266;2023-03-23T04:33:25;10.00;;;4.40;;
4424;SDS011;2225;53.568;13.266;2023-03-23T04:35:54;11.13;;;4.10;;
4424;SDS011;2225;53.568;13.266;2023-03-23T04:38:31;7.73;;;4.33;;
4424;SDS011;2225;53.568;13.266;2023-03-23T04:41:04;9.03;;;3.70;;
4424;SDS011;2225;53.568;13.266;2023-03-23T04:43:41;12.63;;;3.87;;
4424;SDS011;2225;53.568;13.266;2023-03-23T04:46:25;8.80;;;4.30;;
4424;SDS011;2225;53.568;13.266;2023-03-23T04:48:54;8.07;;;4.20;;
4424;SDS011;2225;53.568;13.266;2023-03-23T04:51:25;10.30;;;4.00;;
4424;SDS011;2225;53.568;13.266;2023-03-23T04:53:53;8.93;;;3.70;;
4424;SDS011;2225;53.568;13.266;2023-03-23T04:56:19;9.20;;;4.20;;
4424;SDS011;2225;53.568;13.266;2023-03-23T04:58:46;12.30;;;4.73;;
4424;SDS011;2225;53.568;13.266;2023-03-23T05:01:28;9.77;;;4.70;;
4424;SDS011;2225;53.568;13.266;2023-03-23T05:04:07;10.07;;;4.77;;
4424;SDS011;2225;53.568;13.266;2023-03-23T05:06:34;8.83;;;3.67;;
4424;SDS011;2225;53.568;13.266;2023-03-23T05:09:07;9.63;;;4.60;;
4424;SDS011;2225;53.568;13.266;2023-03-23T05:11:33;10.57;;;4.67;;
4424;SDS011;2225;53.568;13.266;2023-03-23T05:13:59;10.60;;;4.73;;
4424;SDS011;2225;53.568;13.266;2023-03-23T05:16:25;7.20;;;3.80;;
4424;SDS011;2225;53.568;13.266;2023-03-23T05:18:54;12.50;;;4.10;;
4424;SDS011;2225;53.568;13.266;2023-03-23T05:21:22;8.97;;;4.43;;
4424;SDS011;2225;53.568;13.266;2023-03-23T05:23:52;9.23;;;4.40;;
4424;SDS011;2225;53.568;13.266;2023-03-23T05:26:21;10.27;;;4.40;;
4424;SDS011;2225;53.568;13.266;2023-03-23T05:28:51;15.73;;;4.47;;
4424;SDS011;2225;53.568;13.266;2023-03-23T05:31:22;10.57;;;4.13;;
4424;SDS011;2225;53.568;13.266;2023-03-23T05:33:50;8.03;;;4.30;;
4424;SDS011;2225;53.568;13.266;2023-03-23T05:36:46;8.87;;;4.33;;
4424;SDS011;2225;53.568;13.266;2023-03-23T05:39:24;10.77;;;4.80;;
4424;SDS011;2225;53.568;13.266;2023-03-23T05:42:07;11.80;;;4.90;;
4424;SDS011;2225;53.568;13.266;2023-03-23T05:44:51;9.80;;;4.23;;
4424;SDS011;2225;53.568;13.266;2023-03-23T05:47:18;9.77;;;3.80;;
4424;SDS011;2225;53.568;13.266;2023-03-23T05:49:50;8.63;;;3.97;;
4424;SDS011;2225;53.568;13.266;2023-03-23T05:52:18;10.03;;;4.73;;
4424;SDS011;2225;53.568;13.266;2023-03-23T05:54:45;8.10;;;4.30;;
4424;SDS011;2225;53.568;13.266;2023-03-23T05:57:12;9.30;;;5.13;;
4424;SDS011;2225;53.568;13.266;2023-03-23T05:59:44;11.10;;;4.90;;
4424;SDS011;2225;53.568;13.266;2023-03-23T06:02:17;8.60;;;4.60;;
4424;SDS011;2225;53.568;13.266;2023-03-23T06:04:43;8.33;;;4.77;;
4424;SDS011;2225;53.568;13.266;2023-03-23T06:07:16;10.00;;;4.93;;
4424;SDS011;2225;53.568;13.266;2023-03-23T06:09:51;9.90;;;5.13;;
4424;SDS011;2225;53.568;13.266;2023-03-23T06:12:34;14.33;;;5.03;;
4424;SDS011;2225;53.568;13.266;2023-03-23T06:15:23;9.43;;;4.20;;
4424;SDS011;2225;53.568;13.266;2023-03-23T06:17:59;10.60;;;4.90;;
4424;SDS011;2225;53.568;13.266;2023-03-23T06:20:35;9.70;;;4.47;;
4424;SDS011;2225;53.568;13.266;2023-03-23T06:23:14;10.40;;;5.07;;
4424;SDS011;2225;53.568;13.266;2023-03-23T06:25:41;10.43;;;4.13;;
4424;SDS011;2225;53.568;13.266;2023-03-23T06:28:08;10.10;;;4.53;;
4424;SDS011;2225;53.568;13.266;2023-03-23T06:30:40;13.60;;;5.00;;
4424;SDS011;2225;53.568;13.266;2023-03-23T06:33:05;10.87;;;4.33;;
4424;SDS011;2225;53.568;13.266;2023-03-23T06:35:53;8.80;;;4.17;;
4424;SDS011;2225;53.568;13.266;2023-03-23T06:38:39;8.77;;;4.80;;
4424;SDS011;2225;53.568;13.266;2023-03-23T06:41:06;8.77;;;4.73;;
4424;SDS011;2225;53.568;13.266;2023-03-23T06:43:32;8.40;;;4.70;;
4424;SDS011;2225;53.568;13.266;2023-03-23T06:46:10;9.83;;;4.17;;
4424;SDS011;2225;53.568;13.266;2023-03-23T06:48:35;10.13;;;4.90;;
4424;SDS011;2225;53.568;13.266;2023-03-23T06:51:03;11.63;;;4.00;;
4424;SDS011;2225;53.568;13.266;2023-03-23T06:53:32;9.90;;;4.37;;
4424;SDS011;2225;53.568;13.266;2023-03-23T06:55:59;10.53;;;4.37;;
4424;SDS011;2225;53.568;13.266;2023-03-23T06:58:25;12.07;;;4.10;;
4424;SDS011;2225;53.568;13.266;2023-03-23T07:00:55;10.20;;;4.30;;
4424;SDS011;2225;53.568;13.266;2023-03-23T07:03:27;7.90;;;4.43;;
4424;SDS011;2225;53.568;13.266;2023-03-23T07:05:54;10.27;;;4.00;;
4424;SDS011;2225;53.568;13.266;2023-03-23T07:08:25;8.93;;;4.53;;
4424;SDS011;2225;53.568;13.266;2023-03-23T07:10:52;6.57;;;3.60;;
4424;SDS011;2225;53.568;13.266;2023-03-23T07:13:23;7.77;;;4.27;;
4424;SDS011;2225;53.568;13.266;2023-03-23T07:15:54;9.27;;;4.57;;
4424;SDS011;2225;53.568;13.266;2023-03-23T07:18:20;8.00;;;4.07;;
4424;SDS011;2225;53.568;13.266;2023-03-23T07:20:49;9.57;;;4.60;;
4424;SDS011;2225;53.568;13.266;2023-03-23T07:23:18;7.70;;;3.93;;
4424;SDS011;2225;53.568;13.266;2023-03-23T07:25:54;7.97;;;4.10;;
4424;SDS011;2225;53.568;13.266;2023-03-23T07:28:25;8.20;;;4.00;;
4424;SDS011;2225;53.568;13.266;2023-03-23T07:30:54;9.00;;;4.50;;
4424;SDS011;2225;53.568;13.266;2023-03-23T07:33:20;7.13;;;3.93;;
4424;SDS011;2225;53.568;13.266;2023-03-23T07:35:47;8.00;;;4.37;;
4424;SDS011;2225;53.568;13.266;2023-03-23T07:38:15;7.90;;;3.83;;
4424;SDS011;2225;53.568;13.266;2023-03-23T07:40:46;6.87;;;3.50;;
4424;SDS011;2225;53.568;13.266;2023-03-23T07:43:15;11.03;;;4.07;;
4424;SDS011;2225;53.568;13.266;2023-03-23T07:46:00;9.53;;;4.13;;
4424;SDS011;2225;53.568;13.266;2023-03-23T07:48:39;8.67;;;4.77;;
4424;SDS011;2225;53.568;13.266;2023-03-23T07:51:05;16.40;;;3.93;;
4424;SDS011;2225;53.568;13.266;2023-03-23T07:53:33;7.27;;;3.97;;
4424;SDS011;2225;53.568;13.266;2023-03-23T07:56:14;6.33;;;3.37;;
4424;SDS011;2225;53.568;13.266;2023-03-23T07:58:51;9.93;;;3.80;;
4424;SDS011;2225;53.568;13.266;2023-03-23T08:01:18;9.30;;;3.70;;
4424;SDS011;2225;53.568;13.266;2023-03-23T08:04:04;7.20;;;3.50;;
4424;SDS011;2225;53.568;13.266;2023-03-23T08:06:56;6.80;;;3.63;;
4424;SDS011;2225;53.568;13.266;2023-03-23T08:09:55;7.27;;;3.60;;
4424;SDS011;2225;53.568;13.266;2023-03-23T08:12:30;9.17;;;4.00;;
4424;SDS011;2225;53.568;13.266;2023-03-23T08:15:15;9.53;;;3.97;;
4424;SDS011;2225;53.568;13.266;2023-03-23T08:18:07;8.50;;;3.70;;
4424;SDS011;2225;53.568;13.266;2023-03-23T08:20:56;8.60;;;3.63;;
4424;SDS011;2225;53.568;13.266;2023-03-23T08:23:45;6.50;;;3.30;;
4424;SDS011;2225;53.568;13.266;2023-03-23T08:26:19;7.63;;;3.97;;
4424;SDS011;2225;53.568;13.266;2023-03-23T08:29:12;7.10;;;3.93;;
4424;SDS011;2225;53.568;13.266;2023-03-23T08:32:02;8.50;;;3.60;;
4424;SDS011;2225;53.568;13.266;2023-03-23T08:34:46;10.40;;;3.90;;
4424;SDS011;2225;53.568;13.266;2023-03-23T08:37:31;6.27;;;3.03;;
4424;SDS011;2225;53.568;13.266;2023-03-23T08:40:17;9.43;;;3.47;;
4424;SDS011;2225;53.568;13.266;2023-03-23T08:42:56;8.27;;;3.50;;
4424;SDS011;2225;53.568;13.266;2023-03-23T08:45:40;8.70;;;3.63;;
4424;SDS011;2225;53.568;13.266;2023-03-23T08:48:21;7.13;;;3.23;;
4424;SDS011;2225;53.568;13.266;2023-03-23T08:51:06;6.90;;;2.60;;
4424;SDS011;2225;53.568;13.266;2023-03-23T08:53:54;8.30;;;3.53;;
4424;SDS011;2225;53.568;13.266;2023-03-23T08:56:35;9.87;;;3.53;;
4424;SDS011;2225;53.568;13.266;2023-03-23T08:59:28;8.47;;;3.00;;
4424;SDS011;2225;53.568;13.266;2023-03-23T09:02:01;8.80;;;2.90;;
4424;SDS011;2225;53.568;13.266;2023-03-23T09:04:35;6.90;;;3.03;;
4424;SDS011;2225;53.568;13.266;2023-03-23T09:07:29;8.23;;;3.00;;
4424;SDS011;2225;53.568;13.266;2023-03-23T09:09:55;9.93;;;3.10;;
4424;SDS011;2225;53.568;13.266;2023-03-23T09:12:21;7.47;;;2.50;;
4424;SDS011;2225;53.568;13.266;2023-03-23T09:14:48;10.00;;;3.00;;
4424;SDS011;2225;53.568;13.266;2023-03-23T09:17:14;9.17;;;2.70;;
4424;SDS011;2225;53.568;13.266;2023-03-23T09:19:40;7.50;;;3.07;;
4424;SDS011;2225;53.568;13.266;2023-03-23T09:22:06;5.70;;;2.50;;
4424;SDS011;2225;53.568;13.266;2023-03-23T09:24:33;9.67;;;2.23;;
4424;SDS011;2225;53.568;13.266;2023-03-23T09:26:59;7.27;;;2.30;;
4424;SDS011;2225;53.568;13.266;2023-03-23T09:29:25;8.40;;;2.40;;
4424;SDS011;2225;53.568;13.266;2023-03-23T09:31:52;5.40;;;2.37;;
4424;SDS011;2225;53.568;13.266;2023-03-23T09:34:19;5.30;;;2.10;;
4424;SDS011;2225;53.568;13.266;2023-03-23T09:36:45;8.53;;;2.37;;
4424;SDS011;2225;53.568;13.266;2023-03-23T09:39:12;6.10;;;2.23;;
4424;SDS011;2225;53.568;13.266;2023-03-23T09:41:59;6.57;;;2.70;;
4424;SDS011;2225;53.568;13.266;2023-03-23T09:47:56;6.90;;;2.60;;
4424;SDS011;2225;53.568;13.266;2023-03-23T09:50:32;6.77;;;2.50;;
4424;SDS011;2225;53.568;13.266;2023-03-23T09:55:51;7.13;;;1.97;;
4424;SDS011;2225;53.568;13.266;2023-03-23T09:58:20;7.67;;;2.93;;
4424;SDS011;2225;53.568;13.266;2023-03-23T10:01:02;6.07;;;2.17;;
4424;SDS011;2225;53.568;13.266;2023-03-23T10:03:39;5.77;;;2.10;;
4424;SDS011;2225;53.568;13.266;2023-03-23T10:06:09;5.10;;;2.40;;
4424;SDS011;2225;53.568;13.266;2023-03-23T10:08:44;5.90;;;2.10;;
4424;SDS011;2225;53.568;13.266;2023-03-23T10:11:19;6.30;;;2.23;;
4424;SDS011;2225;53.568;13.266;2023-03-23T10:20:34;5.47;;;1.97;;
4424;SDS011;2225;53.568;13.266;2023-03-23T10:22:49;6.30;;;2.40;;
4424;SDS011;2225;53.568;13.266;2023-03-23T10:25:34;10.43;;;2.17;;
4424;SDS011;2225;53.568;13.266;2023-03-23T10:28:08;8.33;;;2.00;;
4424;SDS011;2225;53.568;13.266;2023-03-23T10:30:38;5.80;;;1.97;;
4424;SDS011;2225;53.568;13.266;2023-03-23T10:33:13;5.60;;;2.37;;
4424;SDS011;2225;53.568;13.266;2023-03-23T10:35:56;7.10;;;2.30;;
4424;SDS011;2225;53.568;13.266;2023-03-23T10:38:33;5.70;;;2.30;;
4424;SDS011;2225;53.568;13.266;2023-03-23T10:41:04;7.43;;;2.70;;
4424;SDS011;2225;53.568;13.266;2023-03-23T10:43:37;8.20;;;2.97;;
4424;SDS011;2225;53.568;13.266;2023-03-23T10:48:56;11.40;;;2.60;;
4424;SDS011;2225;53.568;13.266;2023-03-23T10:51:28;5.20;;;1.73;;
4424;SDS011;2225;53.568;13.266;2023-03-23T10:54:00;24.10;;;2.67;;
4424;SDS011;2225;53.568;13.266;2023-03-23T10:56:35;4.67;;;1.67;;
4424;SDS011;2225;53.568;13.266;2023-03-23T10:59:12;7.97;;;2.57;;
4424;SDS011;2225;53.568;13.266;2023-03-23T11:02:00;6.83;;;2.30;;
4424;SDS011;2225;53.568;13.266;2023-03-23T11:04:28;5.87;;;2.70;;
4424;SDS011;2225;53.568;13.266;2023-03-23T11:06:58;6.83;;;2.90;;
4424;SDS011;2225;53.568;13.266;2023-03-23T11:09:37;7.93;;;2.53;;
4424;SDS011;2225;53.568;13.266;2023-03-23T11:12:15;6.33;;;2.30;;
4424;SDS011;2225;53.568;13.266;2023-03-23T11:14:43;9.40;;;2.73;;
4424;SDS011;2225;53.568;13.266;2023-03-23T11:17:20;6.70;;;2.50;;
4424;SDS011;2225;53.568;13.266;2023-03-23T11:19:51;10.70;;;2.20;;
4424;SDS011;2225;53.568;13.266;2023-03-23T11:22:28;12.10;;;2.30;;
4424;SDS011;2225;53.568;13.266;2023-03-23T11:25:02;5.80;;;2.10;;
4424;SDS011;2225;53.568;13.266;2023-03-23T11:27:30;7.23;;;2.10;;
4424;SDS011;2225;53.568;13.266;2023-03-23T11:30:07;5.30;;;1.90;;
4424;SDS011;2225;53.568;13.266;2023-03-23T11:32:50;8.13;;;2.10;;
4424;SDS011;2225;53.568;13.266;2023-03-23T11:35:19;5.80;;;1.90;;
4424;SDS011;2225;53.568;13.266;2023-03-23T11:37:50;5.80;;;2.37;;
4424;SDS011;2225;53.568;13.266;2023-03-23T11:40:24;8.00;;;3.00;;
4424;SDS011;2225;53.568;13.266;2023-03-23T11:48:13;9.40;;;2.20;;
4424;SDS011;2225;53.568;13.266;2023-03-23T11:51:06;7.87;;;2.40;;
4424;SDS011;2225;53.568;13.266;2023-03-23T11:56:36;11.90;;;2.23;;
4424;SDS011;2225;53.568;13.266;2023-03-23T11:59:15;8.30;;;2.40;;
4424;SDS011;2225;53.568;13.266;2023-03-23T12:01:50;7.50;;;2.47;;
4424;SDS011;2225;53.568;13.266;2023-03-23T12:07:26;7.90;;;2.30;;
4424;SDS011;2225;53.568;13.266;2023-03-23T12:16:17;8.30;;;2.20;;
4424;SDS011;2225;53.568;13.266;2023-03-23T12:22:01;16.90;;;2.60;;
4424;SDS011;2225;53.568;13.266;2023-03-23T12:28:18;7.97;;;2.37;;
4424;SDS011;2225;53.568;13.266;2023-03-23T12:34:10;7.73;;;1.87;;
4424;SDS011;2225;53.568;13.266;2023-03-23T12:42:58;10.50;;;2.27;;
4424;SDS011;2225;53.568;13.266;2023-03-23T12:46:08;11.83;;;1.93;;
4424;SDS011;2225;53.568;13.266;2023-03-23T12:48:44;7.07;;;1.80;;
4424;SDS011;2225;53.568;13.266;2023-03-23T12:51:22;9.73;;;2.40;;
4424;SDS011;2225;53.568;13.266;2023-03-23T12:54:29;6.90;;;2.30;;
4424;SDS011;2225;53.568;13.266;2023-03-23T12:57:11;7.63;;;2.30;;
4424;SDS011;2225;53.568;13.266;2023-03-23T12:59:54;5.37;;;1.97;;
4424;SDS011;2225;53.568;13.266;2023-03-23T13:03:00;7.90;;;2.20;;
4424;SDS011;2225;53.568;13.266;2023-03-23T13:05:50;6.73;;;2.07;;
4424;SDS011;2225;53.568;13.266;2023-03-23T13:08:26;10.40;;;3.30;;
4424;SDS011;2225;53.568;13.266;2023-03-23T13:11:05;7.60;;;2.07;;
4424;SDS011;2225;53.568;13.266;2023-03-23T13:13:48;5.80;;;1.80;;
4424;SDS011;2225;53.568;13.266;2023-03-23T13:16:22;8.43;;;2.43;;
4424;SDS011;2225;53.568;13.266;2023-03-23T13:19:04;8.40;;;1.60;;
4424;SDS011;2225;53.568;13.266;2023-03-23T13:22:13;8.87;;;2.07;;
4424;SDS011;2225;53.568;13.266;2023-03-23T13:24:49;7.30;;;2.50;;
4424;SDS011;2225;53.568;13.266;2023-03-23T13:27:26;9.10;;;2.30;;
4424;SDS011;2225;53.568;13.266;2023-03-23T13:29:56;10.43;;;1.80;;
4424;SDS011;2225;53.568;13.266;2023-03-23T13:32:30;7.27;;;2.10;;
4424;SDS011;2225;53.568;13.266;2023-03-23T13:35:05;8.13;;;1.50;;
4424;SDS011;2225;53.568;13.266;2023-03-23T13:37:41;7.27;;;1.90;;
4424;SDS011;2225;53.568;13.266;2023-03-23T13:42:47;7.13;;;1.87;;
4424;SDS011;2225;53.568;13.266;2023-03-23T13:45:20;11.60;;;2.00;;
4424;SDS011;2225;53.568;13.266;2023-03-23T13:47:49;7.77;;;1.90;;
4424;SDS011;2225;53.568;13.266;2023-03-23T13:50:31;13.80;;;2.00;;
4424;SDS011;2225;53.568;13.266;2023-03-23T13:53:22;8.50;;;2.27;;
4424;SDS011;2225;53.568;13.266;2023-03-23T13:56:19;10.93;;;1.80;;
4424;SDS011;2225;53.568;13.266;2023-03-23T13:59:05;6.03;;;1.77;;
4424;SDS011;2225;53.568;13.266;2023-03-23T14:01:33;7.53;;;1.93;;
4424;SDS011;2225;53.568;13.266;2023-03-23T14:04:06;10.27;;;1.80;;
4424;SDS011;2225;53.568;13.266;2023-03-23T14:06:56;7.73;;;2.00;;
4424;SDS011;2225;53.568;13.266;2023-03-23T14:09:33;6.90;;;1.93;;
4424;SDS011;2225;53.568;13.266;2023-03-23T14:12:05;7.50;;;1.67;;
4424;SDS011;2225;53.568;13.266;2023-03-23T14:14:48;7.93;;;1.90;;
4424;SDS011;2225;53.568;13.266;2023-03-23T14:17:31;6.83;;;1.60;;
4424;SDS011;2225;53.568;13.266;2023-03-23T14:20:09;6.93;;;1.90;;
4424;SDS011;2225;53.568;13.266;2023-03-23T14:22:59;9.13;;;1.73;;
4424;SDS011;2225;53.568;13.266;2023-03-23T14:25:29;6.53;;;1.53;;
4424;SDS011;2225;53.568;13.266;2023-03-23T14:27:57;6.57;;;1.90;;
4424;SDS011;2225;53.568;13.266;2023-03-23T14:30:25;6.30;;;1.20;;
4424;SDS011;2225;53.568;13.266;2023-03-23T14:32:53;6.37;;;1.87;;
4424;SDS011;2225;53.568;13.266;2023-03-23T14:35:30;8.00;;;1.53;;
4424;SDS011;2225;53.568;13.266;2023-03-23T14:38:00;6.90;;;1.50;;
4424;SDS011;2225;53.568;13.266;2023-03-23T14:40:27;10.73;;;1.40;;
4424;SDS011;2225;53.568;13.266;2023-03-23T14:42:55;9.03;;;1.77;;
4424;SDS011;2225;53.568;13.266;2023-03-23T14:45:22;6.57;;;1.50;;
4424;SDS011;2225;53.568;13.266;2023-03-23T14:50:48;15.30;;;2.50;;
4424;SDS011;2225;53.568;13.266;2023-03-23T14:53:24;8.80;;;2.00;;
4424;SDS011;2225;53.568;13.266;2023-03-23T14:56:02;6.93;;;1.50;;
4424;SDS011;2225;53.568;13.266;2023-03-23T14:58:36;10.10;;;1.57;;
4424;SDS011;2225;53.568;13.266;2023-03-23T15:01:07;8.00;;;1.77;;
4424;SDS011;2225;53.568;13.266;2023-03-23T15:03:43;6.40;;;1.43;;
4424;SDS011;2225;53.568;13.266;2023-03-23T15:06:19;8.60;;;1.73;;
4424;SDS011;2225;53.568;13.266;2023-03-23T15:08:48;7.83;;;1.67;;
4424;SDS011;2225;53.568;13.266;2023-03-23T15:11:23;8.57;;;2.00;;
4424;SDS011;2225;53.568;13.266;2023-03-23T15:13:54;12.33;;;1.90;;
4424;SDS011;2225;53.568;13.266;2023-03-23T15:16:27;11.07;;;2.37;;
4424;SDS011;2225;53.568;13.266;2023-03-23T15:18:59;7.13;;;1.93;;
4424;SDS011;2225;53.568;13.266;2023-03-23T15:24:00;7.00;;;1.93;;
4424;SDS011;2225;53.568;13.266;2023-03-23T15:26:44;8.03;;;1.90;;
4424;SDS011;2225;53.568;13.266;2023-03-23T15:31:48;7.60;;;1.63;;
4424;SDS011;2225;53.568;13.266;2023-03-23T15:34:24;9.63;;;1.97;;
4424;SDS011;2225;53.568;13.266;2023-03-23T15:37:04;5.90;;;2.10;;
4424;SDS011;2225;53.568;13.266;2023-03-23T15:39:49;6.50;;;1.83;;
4424;SDS011;2225;53.568;13.266;2023-03-23T15:42:23;7.67;;;1.87;;
4424;SDS011;2225;53.568;13.266;2023-03-23T15:44:56;9.00;;;1.77;;
4424;SDS011;2225;53.568;13.266;2023-03-23T15:47:50;8.30;;;2.10;;
4424;SDS011;2225;53.568;13.266;2023-03-23T15:52:51;10.50;;;2.47;;
4424;SDS011;2225;53.568;13.266;2023-03-23T15:58:07;7.83;;;2.43;;
4424;SDS011;2225;53.568;13.266;2023-03-23T16:00:37;13.50;;;2.60;;
4424;SDS011;2225;53.568;13.266;2023-03-23T16:03:07;9.40;;;2.13;;
4424;SDS011;2225;53.568;13.266;2023-03-23T16:05:39;8.97;;;2.17;;
4424;SDS011;2225;53.568;13.266;2023-03-23T16:08:08;7.33;;;2.10;;
4424;SDS011;2225;53.568;13.266;2023-03-23T16:10:37;5.80;;;2.03;;
4424;SDS011;2225;53.568;13.266;2023-03-23T16:13:04;5.60;;;1.60;;
4424;SDS011;2225;53.568;13.266;2023-03-23T16:15:32;8.30;;;2.00;;
4424;SDS011;2225;53.568;13.266;2023-03-23T16:17:59;6.63;;;2.43;;
4424;SDS011;2225;53.568;13.266;2023-03-23T16:20:27;8.23;;;1.80;;
4424;SDS011;2225;53.568;13.266;2023-03-23T16:22:55;11.70;;;2.40;;
4424;SDS011;2225;53.568;13.266;2023-03-23T16:25:22;26.63;;;4.00;;
4424;SDS011;2225;53.568;13.266;2023-03-23T16:27:49;6.70;;;1.97;;
4424;SDS011;2225;53.568;13.266;2023-03-23T16:30:19;10.67;;;2.97;;
4424;SDS011;2225;53.568;13.266;2023-03-23T16:32:49;4.83;;;2.10;;
4424;SDS011;2225;53.568;13.266;2023-03-23T16:35:16;11.83;;;3.87;;
4424;SDS011;2225;53.568;13.266;2023-03-23T16:37:49;6.57;;;1.97;;
4424;SDS011;2225;53.568;13.266;2023-03-23T16:40:32;6.30;;;1.80;;
4424;SDS011;2225;53.568;13.266;2023-03-23T16:42:59;8.07;;;3.33;;
4424;SDS011;2225;53.568;13.266;2023-03-23T16:45:33;8.50;;;2.37;;
4424;SDS011;2225;53.568;13.266;2023-03-23T16:48:00;6.37;;;1.93;;
4424;SDS011;2225;53.568;13.266;2023-03-23T16:50:28;7.77;;;2.03;;